Time;durP1;ratioP1;P1;durP2;ratioP2;P2;SDS_P1;SDS_P2;PMS_P1;PMS_P2;Temp;Humidity;BMP_temperature;BMP_pressure;BME280_temperature;BME280_humidity;BME280_pressure;Samples;Min_cycle;Max_cycle;Signal;HPM_P1;HPM_P2
2022/10/20 00:00:49;;;;;;;;;;;18.10;99.90;;;;;;5113833;28;19919;-24
2022/10/20 00:03:15;;;;;;;;;;;18.00;99.90;;;;;;5113630;28;20426;-24
2022/10/20 00:05:40;;;;;;;;;;;18.10;99.90;;;;;;5113863;28;19935;-24
2022/10/20 00:08:06;;;;;;;;;;;18.10;99.90;;;;;;5095265;28;20381;-24
2022/10/20 00:10:31;;;;;;;;;;;18.10;99.90;;;;;;5113579;28;19911;-24
2022/10/20 00:12:57;;;;;;;;;;;18.10;99.90;;;;;;5113277;28;19999;-24
2022/10/20 00:15:22;;;;;;;;;;;18.10;99.90;;;;;;5113666;28;19912;-24
2022/10/20 00:17:48;;;;;;;;;;;18.10;99.90;;;;;;5095465;28;20425;-24
2022/10/20 00:20:13;;;;;;;;;;;18.00;99.90;;;;;;5113423;28;19914;-24
2022/10/20 00:22:39;;;;;;;;;;;18.00;99.90;;;;;;5112977;28;19915;-24
2022/10/20 00:25:04;;;;;;;;;;;18.10;99.90;;;;;;5113383;28;20002;-24
2022/10/20 00:27:30;;;;;;;;;;;18.00;99.90;;;;;;5112936;28;20008;-24
2022/10/20 00:29:55;;;;;;;;;;;18.00;99.90;;;;;;5113063;28;19919;-24
2022/10/20 00:32:21;;;;;;;;;;;18.10;99.90;;;;;;5113000;28;19915;-24
2022/10/20 00:34:46;;;;;;;;;;;18.00;99.90;;;;;;5113021;28;20425;-24
2022/10/20 00:37:12;;;;;;;;;;;18.00;99.90;;;;;;5113056;28;20326;-24
2022/10/20 00:39:37;;;;;;;;;;;18.00;99.90;;;;;;5113102;28;19992;-24
2022/10/20 00:42:03;;;;;;;;;;;18.00;99.90;;;;;;5112900;28;19908;-24
2022/10/20 00:44:47;;;;;;;;;;;18.00;99.90;;;;;;5112926;28;19960;-24
2022/10/20 00:47:15;;;;;;;;;;;18.00;99.90;;;;;;5112795;28;19912;-24
2022/10/20 00:49:41;;;;;;;;;;;18.00;99.90;;;;;;5113108;28;19915;-24
2022/10/20 00:52:07;;;;;;;;;;;18.00;99.90;;;;;;5113047;28;19916;-24
2022/10/20 00:54:33;;;;;;;;;;;18.00;99.90;;;;;;5112720;28;19911;-24
2022/10/20 00:56:58;;;;;;;;;;;18.00;99.90;;;;;;5112899;28;20255;-24
2022/10/20 00:59:26;;;;;;;;;;;18.00;99.90;;;;;;5112991;28;19908;-24
2022/10/20 01:01:52;;;;;;;;;;;18.00;99.90;;;;;;5112885;28;19912;-24
2022/10/20 01:04:17;;;;;;;;;;;18.00;99.90;;;;;;5113710;28;19964;-23
2022/10/20 01:06:43;;;;;;;;;;;18.00;99.90;;;;;;5112841;28;19918;-23
2022/10/20 01:09:09;;;;;;;;;;;18.00;99.90;;;;;;5116497;28;19908;-23
2022/10/20 01:11:41;;;;;;;;;;;18.00;99.90;;;;;;5120775;28;19912;-24
2022/10/20 01:14:18;;;;;;;;;;;18.00;99.90;;;;;;5114418;28;20361;-24
2022/10/20 01:17:06;;;;;;;;;;;17.90;99.90;;;;;;5112661;28;19912;-24
2022/10/20 01:19:58;;;;;;;;;;;17.90;99.90;;;;;;5112362;28;19908;-24
2022/10/20 01:22:38;;;;;;;;;;;18.00;99.90;;;;;;5112935;28;19919;-24
2022/10/20 01:25:07;;;;;;;;;;;17.90;99.90;;;;;;5112377;28;19942;-24
2022/10/20 01:27:34;;;;;;;;;;;17.90;99.90;;;;;;5112705;28;19938;-23
2022/10/20 01:30:08;;;;;;;;;;;18.00;99.90;;;;;;5113234;28;19915;-23
2022/10/20 01:32:34;;;;;;;;;;;17.90;99.90;;;;;;5093561;28;19990;-24
2022/10/20 01:35:10;;;;;;;;;;;17.90;99.90;;;;;;5112245;28;20595;-24
2022/10/20 01:37:38;;;;;;;;;;;18.00;99.90;;;;;;5112909;28;20380;-24
2022/10/20 01:40:09;;;;;;;;;;;17.90;99.90;;;;;;5112376;28;19976;-24
2022/10/20 01:42:36;;;;;;;;;;;17.90;99.90;;;;;;5112808;28;20248;-23
2022/10/20 01:45:02;;;;;;;;;;;17.90;99.90;;;;;;5112794;28;19908;-24
2022/10/20 01:47:28;;;;;;;;;;;17.90;99.90;;;;;;5112788;28;20392;-23
2022/10/20 01:49:56;;;;;;;;;;;17.90;99.90;;;;;;5112041;28;19915;-23
2022/10/20 01:52:22;;;;;;;;;;;17.90;99.90;;;;;;5114664;28;19964;-23
2022/10/20 01:54:47;;;;;;;;;;;17.90;99.90;;;;;;5114386;28;20280;-23
2022/10/20 01:57:40;;;;;;;;;;;17.90;99.90;;;;;;5114653;28;19912;-24
2022/10/20 02:00:13;;;;;;;;;;;17.90;99.90;;;;;;5112629;28;19919;-24
2022/10/20 02:02:54;;;;;;;;;;;17.90;99.90;;;;;;5112052;28;20499;-25
2022/10/20 02:05:38;;;;;;;;;;;17.90;99.90;;;;;;5113249;28;19908;-24
2022/10/20 02:08:09;;;;;;;;;;;17.90;99.90;;;;;;5112200;28;19915;-24
2022/10/20 02:10:40;;;;;;;;;;;17.90;99.90;;;;;;5112121;28;19911;-24
2022/10/20 02:13:06;;;;;;;;;;;17.90;99.90;;;;;;5111770;28;19911;-24
2022/10/20 02:15:35;;;;;;;;;;;17.90;99.90;;;;;;5112307;28;19912;-24
2022/10/20 02:18:04;;;;;;;;;;;17.90;99.90;;;;;;5112167;28;19915;-24
2022/10/20 02:20:30;;;;;;;;;;;17.90;99.90;;;;;;5094396;28;19915;-24
2022/10/20 02:22:57;;;;;;;;;;;17.80;99.90;;;;;;5112435;28;19908;-24
2022/10/20 02:25:24;;;;;;;;;;;17.80;99.90;;;;;;5112575;28;19915;-24
2022/10/20 02:27:50;;;;;;;;;;;17.90;99.90;;;;;;5093330;28;20006;-24
2022/10/20 02:30:17;;;;;;;;;;;17.80;99.90;;;;;;5111963;28;19907;-24
2022/10/20 02:32:48;;;;;;;;;;;17.80;99.90;;;;;;5111427;28;19912;-24
2022/10/20 02:35:15;;;;;;;;;;;17.80;99.90;;;;;;5112426;28;20006;-24
2022/10/20 02:37:41;;;;;;;;;;;17.80;99.90;;;;;;5111996;28;19960;-24
2022/10/20 02:40:07;;;;;;;;;;;17.80;99.90;;;;;;5111716;28;19908;-24
2022/10/20 02:42:32;;;;;;;;;;;17.80;99.90;;;;;;5111327;28;19912;-24
2022/10/20 02:44:58;;;;;;;;;;;17.80;99.90;;;;;;5113321;28;19915;-24
2022/10/20 02:47:23;;;;;;;;;;;17.80;99.90;;;;;;5115625;28;20338;-24
2022/10/20 02:49:49;;;;;;;;;;;17.80;99.90;;;;;;5115409;28;19970;-24
2022/10/20 02:52:14;;;;;;;;;;;17.80;99.90;;;;;;5115309;28;19978;-24
2022/10/20 02:54:40;;;;;;;;;;;17.80;99.90;;;;;;5096916;28;20369;-24
2022/10/20 02:57:05;;;;;;;;;;;17.80;99.90;;;;;;5097458;28;19914;-24
2022/10/20 02:59:32;;;;;;;;;;;17.70;99.90;;;;;;5115330;28;19919;-24
2022/10/20 03:01:57;;;;;;;;;;;17.80;99.90;;;;;;5096968;28;19994;-24
2022/10/20 03:04:23;;;;;;;;;;;17.70;99.90;;;;;;5097067;28;20053;-24
2022/10/20 03:06:48;;;;;;;;;;;17.70;99.90;;;;;;5115181;28;19953;-24
2022/10/20 03:09:14;;;;;;;;;;;17.80;99.90;;;;;;5115163;28;19911;-24
2022/10/20 03:11:39;;;;;;;;;;;17.70;99.90;;;;;;5115205;28;19944;-23
2022/10/20 03:14:05;;;;;;;;;;;17.70;99.90;;;;;;5114834;28;19911;-23
2022/10/20 03:16:30;;;;;;;;;;;17.70;99.90;;;;;;5115314;28;19908;-23
2022/10/20 03:18:56;;;;;;;;;;;17.70;99.90;;;;;;5115139;28;19969;-24
2022/10/20 03:21:21;;;;;;;;;;;17.70;99.90;;;;;;5096541;28;19915;-24
2022/10/20 03:23:47;;;;;;;;;;;17.70;99.90;;;;;;5114700;28;19907;-24
2022/10/20 03:26:13;;;;;;;;;;;17.70;99.90;;;;;;5115478;28;19912;-24
2022/10/20 03:28:39;;;;;;;;;;;17.70;99.90;;;;;;5114991;28;19959;-24
2022/10/20 03:31:05;;;;;;;;;;;17.70;99.90;;;;;;5114745;28;20018;-24
2022/10/20 03:33:30;;;;;;;;;;;17.70;99.90;;;;;;5114460;28;19915;-24
2022/10/20 03:35:56;;;;;;;;;;;17.70;99.90;;;;;;5114633;28;19943;-24
2022/10/20 03:38:22;;;;;;;;;;;17.70;99.90;;;;;;5114577;28;19916;-24
2022/10/20 03:40:48;;;;;;;;;;;17.70;99.90;;;;;;5115080;28;19998;-24
2022/10/20 03:43:16;;;;;;;;;;;17.70;99.90;;;;;;5114411;28;19919;-24
2022/10/20 03:45:42;;;;;;;;;;;17.70;99.90;;;;;;5114268;28;19912;-24
2022/10/20 03:48:08;;;;;;;;;;;17.70;99.90;;;;;;5114232;28;20007;-24
2022/10/20 03:50:33;;;;;;;;;;;17.70;99.90;;;;;;5114765;28;19916;-23
2022/10/20 03:52:59;;;;;;;;;;;17.70;99.90;;;;;;5096293;28;20388;-24
2022/10/20 03:55:24;;;;;;;;;;;17.70;99.90;;;;;;5114675;28;20003;-23
2022/10/20 03:57:50;;;;;;;;;;;17.70;99.90;;;;;;5113835;28;19991;-24
2022/10/20 04:00:15;;;;;;;;;;;17.70;99.90;;;;;;5114591;28;19908;-24
2022/10/20 04:02:43;;;;;;;;;;;17.70;99.90;;;;;;5113923;28;19977;-24
2022/10/20 04:05:10;;;;;;;;;;;17.70;99.90;;;;;;5114168;28;19912;-24
2022/10/20 04:07:35;;;;;;;;;;;17.70;99.90;;;;;;5114034;28;19908;-24
2022/10/20 04:10:01;;;;;;;;;;;17.70;99.90;;;;;;5113897;28;19908;-24
2022/10/20 04:12:26;;;;;;;;;;;17.60;99.90;;;;;;5113644;28;20395;-24
2022/10/20 04:14:52;;;;;;;;;;;17.60;99.90;;;;;;5113913;28;20439;-23
2022/10/20 04:17:18;;;;;;;;;;;17.70;99.90;;;;;;5113636;28;19960;-23
2022/10/20 04:19:43;;;;;;;;;;;17.60;99.90;;;;;;5114361;28;20299;-23
2022/10/20 04:22:09;;;;;;;;;;;17.60;99.90;;;;;;5114051;28;19919;-23
2022/10/20 04:24:34;;;;;;;;;;;17.60;99.90;;;;;;5113849;28;20434;-23
2022/10/20 04:27:00;;;;;;;;;;;17.60;99.90;;;;;;5113797;28;20334;-24
2022/10/20 04:29:25;;;;;;;;;;;17.60;99.90;;;;;;5117832;28;19961;-23
2022/10/20 04:31:51;;;;;;;;;;;17.60;99.90;;;;;;5120665;28;19912;-24
2022/10/20 04:34:16;;;;;;;;;;;17.60;99.90;;;;;;5114351;28;19915;-24
2022/10/20 04:36:42;;;;;;;;;;;17.60;99.90;;;;;;5114247;28;19907;-24
2022/10/20 04:39:07;;;;;;;;;;;17.60;99.90;;;;;;5096824;28;19907;-24
2022/10/20 04:41:33;;;;;;;;;;;17.60;99.90;;;;;;5113298;28;20284;-24
2022/10/20 04:43:58;;;;;;;;;;;17.60;99.90;;;;;;5113478;28;19998;-24
2022/10/20 04:46:25;;;;;;;;;;;17.50;99.90;;;;;;5113345;28;20241;-24
2022/10/20 04:48:51;;;;;;;;;;;17.60;99.90;;;;;;5114234;28;19911;-24
2022/10/20 04:51:16;;;;;;;;;;;17.50;99.90;;;;;;5113987;28;20270;-24
2022/10/20 04:53:42;;;;;;;;;;;17.60;99.90;;;;;;5113713;28;19996;-24
2022/10/20 04:56:10;;;;;;;;;;;17.50;99.90;;;;;;5113152;28;20006;-24
2022/10/20 04:58:35;;;;;;;;;;;17.50;99.90;;;;;;5112913;28;19998;-24
2022/10/20 05:01:02;;;;;;;;;;;17.50;99.90;;;;;;5113472;28;19958;-24
2022/10/20 05:03:28;;;;;;;;;;;17.50;99.90;;;;;;5113460;28;19911;-24
2022/10/20 05:05:53;;;;;;;;;;;17.50;99.90;;;;;;5113438;28;19961;-24
2022/10/20 05:08:19;;;;;;;;;;;17.50;99.90;;;;;;5094332;28;19919;-24
2022/10/20 05:10:44;;;;;;;;;;;17.50;99.90;;;;;;5112571;28;19912;-24
2022/10/20 05:13:10;;;;;;;;;;;17.50;99.90;;;;;;5112665;28;19958;-24
2022/10/20 05:15:35;;;;;;;;;;;17.50;99.90;;;;;;5113067;28;20261;-24
2022/10/20 05:18:01;;;;;;;;;;;17.50;99.90;;;;;;5113896;28;19911;-24
2022/10/20 05:20:26;;;;;;;;;;;17.50;99.90;;;;;;5112887;28;19912;-24
2022/10/20 05:22:52;;;;;;;;;;;17.50;99.90;;;;;;5112835;28;19912;-23
2022/10/20 05:25:17;;;;;;;;;;;17.50;99.90;;;;;;5112327;28;19907;-24
2022/10/20 05:27:43;;;;;;;;;;;17.50;99.90;;;;;;5112144;28;19916;-23
2022/10/20 05:30:09;;;;;;;;;;;17.50;99.90;;;;;;5112330;28;19915;-24
2022/10/20 05:32:34;;;;;;;;;;;17.50;99.90;;;;;;5112433;28;19912;-24
2022/10/20 05:35:00;;;;;;;;;;;17.50;99.90;;;;;;5112375;28;19935;-24
2022/10/20 05:37:25;;;;;;;;;;;17.50;99.90;;;;;;5112687;28;19908;-24
2022/10/20 05:39:51;;;;;;;;;;;17.50;99.90;;;;;;5112093;28;19908;-24
2022/10/20 05:42:16;;;;;;;;;;;17.50;99.90;;;;;;5112526;28;19912;-23
2022/10/20 05:44:42;;;;;;;;;;;17.50;99.90;;;;;;5112075;28;19908;-23
2022/10/20 05:47:07;;;;;;;;;;;17.50;99.90;;;;;;5112336;28;20029;-23
2022/10/20 05:49:33;;;;;;;;;;;17.50;99.90;;;;;;5112125;28;20007;-24
2022/10/20 05:51:58;;;;;;;;;;;17.50;99.90;;;;;;5112149;28;19924;-24
2022/10/20 05:54:24;;;;;;;;;;;17.40;99.90;;;;;;5111783;28;19957;-24
2022/10/20 05:56:49;;;;;;;;;;;17.50;99.90;;;;;;5112395;28;19916;-24
2022/10/20 05:59:15;;;;;;;;;;;17.40;99.90;;;;;;5112057;28;19908;-24
2022/10/20 06:01:47;;;;;;;;;;;17.40;99.90;;;;;;5114098;28;19912;-24
2022/10/20 06:04:16;;;;;;;;;;;17.40;99.90;;;;;;5114430;28;19960;-24
2022/10/20 06:06:43;;;;;;;;;;;17.40;99.90;;;;;;5114005;28;19911;-26
2022/10/20 06:09:09;;;;;;;;;;;17.40;99.90;;;;;;5112619;28;19908;-23
2022/10/20 06:11:35;;;;;;;;;;;17.40;99.90;;;;;;5112386;28;19915;-23
2022/10/20 06:14:00;;;;;;;;;;;17.40;99.90;;;;;;5112030;28;19919;-24
2022/10/20 06:16:26;;;;;;;;;;;17.40;99.90;;;;;;5112150;28;19908;-24
2022/10/20 06:18:52;;;;;;;;;;;17.40;99.90;;;;;;5112138;28;19943;-24
2022/10/20 06:21:21;;;;;;;;;;;17.40;99.90;;;;;;5115952;28;19994;-24
2022/10/20 06:23:47;;;;;;;;;;;17.40;99.90;;;;;;5115480;28;19912;-24
2022/10/20 06:26:17;;;;;;;;;;;17.40;99.90;;;;;;5097516;28;19919;-24
2022/10/20 06:28:44;;;;;;;;;;;17.40;99.90;;;;;;5115620;28;19919;-24
2022/10/20 06:31:13;;;;;;;;;;;17.40;99.90;;;;;;5116060;28;19920;-24
2022/10/20 06:33:39;;;;;;;;;;;17.40;99.90;;;;;;5115699;28;19976;-24
2022/10/20 06:36:04;;;;;;;;;;;17.40;99.90;;;;;;5115536;28;20311;-24
2022/10/20 06:38:30;;;;;;;;;;;17.40;99.90;;;;;;5115364;28;19912;-24
2022/10/20 06:40:55;;;;;;;;;;;17.40;99.90;;;;;;5115669;28;20283;-24
2022/10/20 06:43:21;;;;;;;;;;;17.40;99.90;;;;;;5115452;28;19911;-24
2022/10/20 06:46:00;;;;;;;;;;;17.30;99.90;;;;;;5115698;28;19912;-24
2022/10/20 06:48:26;;;;;;;;;;;17.30;99.90;;;;;;5115363;28;19995;-24
2022/10/20 06:50:55;;;;;;;;;;;17.30;99.90;;;;;;5115210;28;19911;-24
2022/10/20 06:53:21;;;;;;;;;;;17.30;99.90;;;;;;5115238;28;20449;-24
2022/10/20 06:55:56;;;;;;;;;;;17.30;99.90;;;;;;5115317;28;19908;-24
2022/10/20 06:58:22;;;;;;;;;;;17.30;99.90;;;;;;5115586;28;19915;-23
2022/10/20 07:00:56;;;;;;;;;;;17.30;99.90;;;;;;5115577;28;19912;-23
2022/10/20 07:03:21;;;;;;;;;;;17.30;99.90;;;;;;5115320;28;20281;-23
2022/10/20 07:05:47;;;;;;;;;;;17.30;99.90;;;;;;5115166;28;19915;-23
2022/10/20 07:08:12;;;;;;;;;;;17.30;99.90;;;;;;5114922;28;20351;-23
2022/10/20 07:10:38;;;;;;;;;;;17.30;99.90;;;;;;5115219;28;19923;-23
2022/10/20 07:13:03;;;;;;;;;;;17.30;99.90;;;;;;5115581;28;19912;-23
2022/10/20 07:15:29;;;;;;;;;;;17.30;99.90;;;;;;5114993;28;20053;-24
2022/10/20 07:17:54;;;;;;;;;;;17.30;99.90;;;;;;5096735;28;19953;-24
2022/10/20 07:20:20;;;;;;;;;;;17.30;99.90;;;;;;5114788;28;19960;-23
2022/10/20 07:22:45;;;;;;;;;;;17.30;99.90;;;;;;5114424;28;19907;-24
2022/10/20 07:25:11;;;;;;;;;;;17.30;99.90;;;;;;5114591;28;20379;-24
2022/10/20 07:27:36;;;;;;;;;;;17.40;99.90;;;;;;5114999;28;19923;-24
2022/10/20 07:30:02;;;;;;;;;;;17.40;99.90;;;;;;5114549;28;19907;-24
2022/10/20 07:32:28;;;;;;;;;;;17.40;99.90;;;;;;5113320;28;19981;-24
2022/10/20 07:34:53;;;;;;;;;;;17.40;99.90;;;;;;5114428;28;20280;-24
2022/10/20 07:37:18;;;;;;;;;;;17.40;99.90;;;;;;5114304;28;19944;-24
2022/10/20 07:39:44;;;;;;;;;;;17.50;99.90;;;;;;5114667;28;19912;-24
2022/10/20 07:42:09;;;;;;;;;;;17.40;99.90;;;;;;5114399;28;20033;-24
2022/10/20 07:44:35;;;;;;;;;;;17.50;99.90;;;;;;5114239;28;19961;-23
2022/10/20 07:47:00;;;;;;;;;;;17.50;99.90;;;;;;5119291;28;19953;-23
2022/10/20 07:49:26;;;;;;;;;;;17.50;99.90;;;;;;5121851;28;19907;-24
2022/10/20 07:51:51;;;;;;;;;;;17.60;99.90;;;;;;5114454;28;19950;-24
2022/10/20 07:54:17;;;;;;;;;;;17.50;99.90;;;;;;5114061;28;19995;-24
2022/10/20 07:56:42;;;;;;;;;;;17.60;99.90;;;;;;5114544;28;19907;-24
2022/10/20 07:59:09;;;;;;;;;;;17.60;99.90;;;;;;5114524;28;19914;-23
2022/10/20 08:01:35;;;;;;;;;;;17.60;99.90;;;;;;5114078;28;19984;-23
2022/10/20 08:04:00;;;;;;;;;;;17.60;99.90;;;;;;5114077;28;20333;-23
2022/10/20 08:06:26;;;;;;;;;;;17.60;99.90;;;;;;5114153;28;19937;-23
2022/10/20 08:08:52;;;;;;;;;;;17.60;99.90;;;;;;5114193;28;20006;-23
2022/10/20 08:11:17;;;;;;;;;;;17.60;99.90;;;;;;5113924;28;20284;-23
2022/10/20 08:13:43;;;;;;;;;;;17.60;99.90;;;;;;5113807;28;19912;-23
2022/10/20 08:16:10;;;;;;;;;;;17.60;99.90;;;;;;5113794;28;19908;-23
2022/10/20 08:18:35;;;;;;;;;;;17.60;99.90;;;;;;5095343;28;19908;-24
2022/10/20 08:21:05;;;;;;;;;;;17.60;99.90;;;;;;5113787;28;20001;-24
2022/10/20 08:23:30;;;;;;;;;;;17.70;99.90;;;;;;5113472;28;19911;-24
2022/10/20 08:25:56;;;;;;;;;;;17.70;99.90;;;;;;5113876;28;19908;-24
2022/10/20 08:28:21;;;;;;;;;;;17.70;99.90;;;;;;5113494;28;19947;-24
2022/10/20 08:30:47;;;;;;;;;;;17.70;99.90;;;;;;5113265;28;19923;-24
2022/10/20 08:33:12;;;;;;;;;;;17.70;99.90;;;;;;5113373;28;19916;-24
2022/10/20 08:35:38;;;;;;;;;;;17.70;99.90;;;;;;5113571;28;20045;-24
2022/10/20 08:38:04;;;;;;;;;;;17.70;99.90;;;;;;5113648;28;20269;-24
2022/10/20 08:40:30;;;;;;;;;;;17.70;99.90;;;;;;5113888;28;20003;-23
2022/10/20 08:42:56;;;;;;;;;;;17.70;99.90;;;;;;5114719;28;20392;-23
2022/10/20 08:45:23;;;;;;;;;;;17.70;99.90;;;;;;5113605;28;19908;-24
2022/10/20 08:47:50;;;;;;;;;;;17.70;99.90;;;;;;5112933;28;19971;-24
2022/10/20 08:50:17;;;;;;;;;;;17.80;99.90;;;;;;5113167;28;19908;-24
2022/10/20 08:52:44;;;;;;;;;;;17.80;99.90;;;;;;5112910;28;19911;-24
2022/10/20 08:55:35;;;;;;;;;;;17.90;99.90;;;;;;5112791;28;20368;-24
2022/10/20 08:58:06;;;;;;;;;;;17.80;99.90;;;;;;5108532;28;19911;-24
2022/10/20 09:00:35;;;;;;;;;;;17.80;99.90;;;;;;5112316;28;19953;-24
2022/10/20 09:03:17;;;;;;;;;;;17.80;99.90;;;;;;5112682;28;19919;-24
2022/10/20 09:05:44;;;;;;;;;;;17.80;99.90;;;;;;5112873;28;19943;-23
2022/10/20 09:08:10;;;;;;;;;;;17.80;99.90;;;;;;5112710;28;19912;-23
2022/10/20 09:10:40;;;;;;;;;;;17.80;99.90;;;;;;5112652;28;19999;-23
2022/10/20 09:13:13;;;;;;;;;;;17.80;99.90;;;;;;5112708;28;20438;-23
2022/10/20 09:15:39;;;;;;;;;;;17.80;99.90;;;;;;5113072;28;19908;-24
2022/10/20 09:18:08;;;;;;;;;;;17.80;99.90;;;;;;5112756;28;20204;-24
2022/10/20 09:20:37;;;;;;;;;;;17.80;99.90;;;;;;5094234;28;19919;-24
2022/10/20 09:23:02;;;;;;;;;;;17.70;99.90;;;;;;5112329;28;20322;-24
2022/10/20 09:25:28;;;;;;;;;;;17.70;99.90;;;;;;5112412;28;20007;-24
2022/10/20 09:27:55;;;;;;;;;;;17.80;99.90;;;;;;5112218;28;19965;-24
2022/10/20 09:30:20;;;;;;;;;;;17.70;99.90;;;;;;5112414;28;19967;-23
2022/10/20 09:32:46;;;;;;;;;;;17.70;99.90;;;;;;5112451;28;19915;-24
2022/10/20 09:35:15;;;;;;;;;;;17.70;99.90;;;;;;5112213;28;19914;-23
2022/10/20 09:37:41;;;;;;;;;;;17.70;99.90;;;;;;5112144;28;19908;-23
2022/10/20 09:40:13;;;;;;;;;;;17.60;99.90;;;;;;5112567;28;20348;-24
2022/10/20 09:42:42;;;;;;;;;;;17.60;99.90;;;;;;5112207;28;19908;-23
2022/10/20 09:45:16;;;;;;;;;;;17.60;99.90;;;;;;5112853;28;19961;-24
2022/10/20 09:47:44;;;;;;;;;;;17.60;99.90;;;;;;5112151;28;19919;-24
2022/10/20 09:50:17;;;;;;;;;;;17.60;99.90;;;;;;5112070;28;19914;-24
2022/10/20 09:52:46;;;;;;;;;;;17.50;99.90;;;;;;5112243;28;19916;-23
2022/10/20 09:55:35;;;;;;;;;;;17.60;99.90;;;;;;5111548;28;19915;-24
2022/10/20 09:58:02;;;;;;;;;;;17.60;99.90;;;;;;5101198;28;19962;-23
2022/10/20 10:00:32;;;;;;;;;;;17.50;99.90;;;;;;5111817;28;19918;-24
2022/10/20 10:03:20;;;;;;;;;;;17.50;99.90;;;;;;5111742;28;19912;-23
2022/10/20 10:05:48;;;;;;;;;;;17.60;99.90;;;;;;5111827;28;19912;-24
2022/10/20 10:08:14;;;;;;;;;;;17.60;99.90;;;;;;5111899;28;19916;-24
2022/10/20 10:10:40;;;;;;;;;;;17.60;99.90;;;;;;5111841;28;19908;-23
2022/10/20 10:13:19;;;;;;;;;;;17.50;99.90;;;;;;5111982;28;19918;-24
2022/10/20 10:15:44;;;;;;;;;;;17.50;99.90;;;;;;5112200;28;19952;-24
2022/10/20 10:18:11;;;;;;;;;;;17.50;99.90;;;;;;5111760;28;19916;-24
2022/10/20 10:20:38;;;;;;;;;;;17.50;99.90;;;;;;5111744;28;20107;-24
2022/10/20 10:23:17;;;;;;;;;;;17.50;99.90;;;;;;5111691;28;19912;-24
2022/10/20 10:25:43;;;;;;;;;;;17.50;99.90;;;;;;5112125;28;19908;-24
2022/10/20 10:28:28;;;;;;;;;;;17.50;99.90;;;;;;5111858;28;20449;-23
2022/10/20 10:31:07;;;;;;;;;;;17.50;99.90;;;;;;5111838;28;20400;-24
2022/10/20 10:33:33;;;;;;;;;;;17.50;99.90;;;;;;5111495;28;19951;-24
2022/10/20 10:36:01;;;;;;;;;;;17.50;99.90;;;;;;5111985;28;19914;-23
2022/10/20 10:38:27;;;;;;;;;;;17.50;99.90;;;;;;5111949;28;19954;-23
2022/10/20 10:41:01;;;;;;;;;;;17.50;99.90;;;;;;5111827;28;19942;-23
2022/10/20 10:43:32;;;;;;;;;;;17.50;99.90;;;;;;5111437;28;19908;-23
2022/10/20 10:46:02;;;;;;;;;;;17.50;99.90;;;;;;5111565;28;19908;-24
2022/10/20 10:48:33;;;;;;;;;;;17.50;99.90;;;;;;5111375;28;20002;-23
2022/10/20 10:51:00;;;;;;;;;;;17.50;99.90;;;;;;5111465;28;19919;-23
2022/10/20 10:53:25;;;;;;;;;;;17.50;99.90;;;;;;5111349;28;19934;-24
2022/10/20 10:56:09;;;;;;;;;;;17.40;99.90;;;;;;5093182;28;19907;-24
2022/10/20 10:59:04;;;;;;;;;;;17.40;99.90;;;;;;5111254;28;19916;-23
2022/10/20 11:01:32;;;;;;;;;;;17.40;99.90;;;;;;5093794;28;20273;-23
2022/10/20 11:04:01;;;;;;;;;;;17.40;99.90;;;;;;5113307;28;19908;-24
2022/10/20 11:06:30;;;;;;;;;;;17.40;99.90;;;;;;5116737;28;19918;-24
2022/10/20 11:09:11;;;;;;;;;;;17.40;99.90;;;;;;5117543;28;19915;-23
2022/10/20 11:12:09;;;;;;;;;;;17.40;99.90;;;;;;5116088;28;20451;-24
2022/10/20 11:15:01;;;;;;;;;;;17.40;99.90;;;;;;5069525;28;20010;-23
2022/10/20 11:17:27;;;;;;;;;;;17.40;99.90;;;;;;5083283;28;19965;-23
2022/10/20 11:20:10;;;;;;;;;;;17.40;99.90;;;;;;5114875;28;20386;-24
2022/10/20 11:22:52;;;;;;;;;;;17.40;99.90;;;;;;5114855;28;19998;-24
2022/10/20 11:25:31;;;;;;;;;;;17.40;99.90;;;;;;5096560;28;19919;-24
2022/10/20 11:27:57;;;;;;;;;;;17.40;99.90;;;;;;5114687;28;19923;-23
2022/10/20 11:30:26;;;;;;;;;;;17.40;99.90;;;;;;5114987;28;19912;-23
2022/10/20 11:33:11;;;;;;;;;;;17.40;99.90;;;;;;5096094;28;19919;-24
2022/10/20 11:35:55;;;;;;;;;;;17.40;99.90;;;;;;5114753;28;19948;-23
2022/10/20 11:38:21;;;;;;;;;;;17.40;99.90;;;;;;5114316;28;19908;-23
2022/10/20 11:40:48;;;;;;;;;;;17.40;99.90;;;;;;5114644;28;19911;-23
2022/10/20 11:43:32;;;;;;;;;;;17.40;99.90;;;;;;5114400;28;20296;-24
2022/10/20 11:45:57;;;;;;;;;;;17.40;99.90;;;;;;5114621;28;20407;-23
2022/10/20 11:48:23;;;;;;;;;;;17.40;99.90;;;;;;5114194;28;19962;-24
2022/10/20 11:50:51;;;;;;;;;;;17.40;99.90;;;;;;5114388;28;19924;-23
2022/10/20 11:53:17;;;;;;;;;;;17.40;99.90;;;;;;5114167;28;19908;-23
2022/10/20 11:56:00;;;;;;;;;;;17.40;99.90;;;;;;5114339;28;20383;-23
2022/10/20 11:58:32;;;;;;;;;;;17.40;99.90;;;;;;5114295;28;19970;-24
2022/10/20 12:01:03;;;;;;;;;;;17.40;99.90;;;;;;5114410;28;20312;-24
2022/10/20 12:03:41;;;;;;;;;;;17.40;99.90;;;;;;5113841;28;20331;-23
2022/10/20 12:06:06;;;;;;;;;;;17.40;99.90;;;;;;5113818;28;19908;-23
2022/10/20 12:08:32;;;;;;;;;;;17.40;99.90;;;;;;5095386;28;19999;-24
2022/10/20 12:11:06;;;;;;;;;;;17.40;99.90;;;;;;5113792;28;20361;-24
2022/10/20 12:13:43;;;;;;;;;;;17.40;99.90;;;;;;5113392;28;19908;-24
2022/10/20 12:16:09;;;;;;;;;;;17.40;99.90;;;;;;5113626;28;19908;-24
2022/10/20 12:18:35;;;;;;;;;;;17.40;99.90;;;;;;5113273;28;20409;-24
2022/10/20 12:21:02;;;;;;;;;;;17.40;99.90;;;;;;5113558;28;20411;-24
2022/10/20 12:23:45;;;;;;;;;;;17.40;99.90;;;;;;5113373;28;20281;-24
2022/10/20 12:26:34;;;;;;;;;;;17.30;99.90;;;;;;5113389;28;19950;-24
2022/10/20 12:29:02;;;;;;;;;;;17.40;99.90;;;;;;5100272;28;19919;-24
2022/10/20 12:31:46;;;;;;;;;;;17.40;99.90;;;;;;5113356;28;20002;-24
2022/10/20 12:34:22;;;;;;;;;;;17.30;99.90;;;;;;5113081;28;19966;-24
2022/10/20 12:36:47;;;;;;;;;;;17.40;99.90;;;;;;5113421;28;19999;-24
2022/10/20 12:39:20;;;;;;;;;;;17.40;99.90;;;;;;5095183;28;19954;-23
2022/10/20 12:42:03;;;;;;;;;;;17.40;99.90;;;;;;5113283;28;20337;-24
2022/10/20 12:44:40;;;;;;;;;;;17.40;99.90;;;;;;5112851;28;19912;-24
2022/10/20 12:47:07;;;;;;;;;;;17.40;99.90;;;;;;5112774;28;19954;-24
2022/10/20 12:49:35;;;;;;;;;;;17.40;99.90;;;;;;5094706;28;20359;-24
2022/10/20 12:52:01;;;;;;;;;;;17.30;99.90;;;;;;5113054;28;19947;-24
2022/10/20 12:54:41;;;;;;;;;;;17.40;99.90;;;;;;5112836;28;20274;-24
2022/10/20 12:57:21;;;;;;;;;;;17.40;99.90;;;;;;5112897;28;19907;-24
2022/10/20 12:59:47;;;;;;;;;;;17.30;99.90;;;;;;5112569;28;19994;-23
2022/10/20 13:02:16;;;;;;;;;;;17.40;99.90;;;;;;5112733;28;19912;-24
2022/10/20 13:05:01;;;;;;;;;;;17.40;99.90;;;;;;5112731;28;19915;-24
2022/10/20 13:07:45;;;;;;;;;;;17.40;99.90;;;;;;5112528;28;19950;-24
2022/10/20 13:10:26;;;;;;;;;;;17.40;99.90;;;;;;5112720;28;19926;-24
2022/10/20 13:12:52;;;;;;;;;;;17.40;99.90;;;;;;5112490;28;19934;-24
2022/10/20 13:15:24;;;;;;;;;;;17.40;99.90;;;;;;5112574;28;19912;-24
2022/10/20 13:18:00;;;;;;;;;;;17.30;99.90;;;;;;5112733;28;19908;-24
2022/10/20 13:20:34;;;;;;;;;;;17.40;99.90;;;;;;5112502;28;19915;-23
2022/10/20 13:23:00;;;;;;;;;;;17.40;99.90;;;;;;5112212;28;19961;-24
2022/10/20 13:25:32;;;;;;;;;;;17.40;99.90;;;;;;5112419;28;19968;-24
2022/10/20 13:28:21;;;;;;;;;;;17.50;99.90;;;;;;5149445;22;19923;-25
2022/10/20 13:31:06;;;;;;;;;;;17.50;99.90;;;;;;5100514;28;20307;-26
2022/10/20 13:33:31;;;;;;;;;;;17.50;99.90;;;;;;5112058;28;19919;-26
2022/10/20 13:36:04;;;;;;;;;;;17.50;99.90;;;;;;5112382;28;19908;-26
2022/10/20 13:38:41;;;;;;;;;;;17.50;99.90;;;;;;5112565;28;19915;-26
2022/10/20 13:41:21;;;;;;;;;;;17.50;99.90;;;;;;5112073;28;19915;-26
2022/10/20 13:44:02;;;;;;;;;;;17.50;99.90;;;;;;5111690;28;19908;-26
2022/10/20 13:46:40;;;;;;;;;;;17.50;99.90;;;;;;5112297;28;19908;-26
2022/10/20 13:49:26;;;;;;;;;;;17.50;99.90;;;;;;5111942;28;19912;-26
2022/10/20 13:51:57;;;;;;;;;;;17.50;99.90;;;;;;5111960;28;20357;-26
2022/10/20 13:54:24;;;;;;;;;;;17.40;99.90;;;;;;5111759;28;20290;-25
2022/10/20 13:56:50;;;;;;;;;;;17.40;99.90;;;;;;5111839;28;19908;-25
2022/10/20 13:59:23;;;;;;;;;;;17.40;99.90;;;;;;5112060;28;19919;-26
2022/10/20 14:01:50;;;;;;;;;;;17.40;99.90;;;;;;5111954;28;19943;-26
2022/10/20 14:04:22;;;;;;;;;;;17.40;99.90;;;;;;5111541;28;19912;-26
2022/10/20 14:06:47;;;;;;;;;;;17.40;99.90;;;;;;5111968;28;19999;-26
2022/10/20 14:09:18;;;;;;;;;;;17.40;99.90;;;;;;5111814;28;20309;-26
2022/10/20 14:11:45;;;;;;;;;;;17.40;99.90;;;;;;5111730;28;19916;-26
2022/10/20 14:14:16;;;;;;;;;;;17.40;99.90;;;;;;5111473;28;19933;-26
2022/10/20 14:16:46;;;;;;;;;;;17.40;99.90;;;;;;5111724;28;19914;-26
2022/10/20 14:19:12;;;;;;;;;;;17.40;99.90;;;;;;5111517;28;19911;-26
2022/10/20 14:21:42;;;;;;;;;;;17.40;99.90;;;;;;5111670;28;19911;-26
2022/10/20 14:24:12;;;;;;;;;;;17.40;99.90;;;;;;5111534;28;20009;-26
2022/10/20 14:26:42;;;;;;;;;;;17.40;99.90;;;;;;5111658;28;19919;-26